Time;durP1;ratioP1;P1;durP2;ratioP2;P2;SDS_P1;SDS_P2;PMS_P1;PMS_P2;Temp;Humidity;BMP_temperature;BMP_pressure;BME280_temperature;BME280_humidity;BME280_pressure;Samples;Min_cycle;Max_cycle;Signal;HPM_P1;HPM_P2
2022/09/20 00:09:55;;;;;;;1.87;1.30;;;;;;;14.85;61.18;100059.88;30918959;28;20121;-77
2022/09/20 00:24:57;;;;;;;6.67;1.80;;;;;;;14.88;59.64;100036.38;30894003;28;20399;-78
2022/09/20 00:40:00;;;;;;;2.83;1.27;;;;;;;14.82;59.52;100027.22;30914074;28;20059;-79
2022/09/20 00:55:06;;;;;;;3.53;1.83;;;;;;;14.76;59.28;100029.00;30926370;28;20507;-78
2022/09/20 01:10:08;;;;;;;1.97;1.27;;;;;;;14.57;60.30;100023.47;30930630;28;20062;-78
2022/09/20 01:25:47;;;;;;;9.87;4.23;;;;;;;14.41;66.32;100001.81;30910815;28;20046;-78
2022/09/20 01:40:55;;;;;;;2.43;1.57;;;;;;;14.26;64.61;100003.50;30862754;28;20082;-79
2022/09/20 01:56:18;;;;;;;6.00;1.40;;;;;;;14.03;63.77;99993.03;30894947;28;20050;-79
2022/09/20 02:11:50;;;;;;;2.00;1.00;;;;;;;13.45;66.73;99972.44;30892989;28;20059;-78
2022/09/20 02:27:04;;;;;;;1.60;1.07;;;;;;;13.31;69.75;99997.41;30906205;28;20054;-77
2022/09/20 02:42:28;;;;;;;4.77;1.30;;;;;;;12.45;94.74;99974.75;30871753;28;20109;-79
2022/09/20 02:57:45;;;;;;;5.23;1.90;;;;;;;11.79;100.00;100003.41;30876899;28;20114;-81
2022/09/20 03:12:53;;;;;;;9.33;2.10;;;;;;;11.46;100.00;99974.72;30910849;28;20474;-80
2022/09/20 03:28:27;;;;;;;3.83;1.57;;;;;;;11.45;100.00;99997.66;30876850;28;20046;-79
2022/09/20 03:43:51;;;;;;;6.00;1.63;;;;;;;11.65;100.00;99987.41;30889290;28;20150;-79
2022/09/20 03:59:15;;;;;;;3.20;1.43;;;;;;;11.91;100.00;99977.44;30897908;28;20410;-79
2022/09/20 04:14:20;;;;;;;3.73;2.03;;;;;;;12.10;100.00;100013.84;30917184;28;20055;-78
2022/09/20 04:29:43;;;;;;;17.23;8.80;;;;;;;12.15;100.00;100002.44;30907269;28;20079;-79
2022/09/20 04:45:09;;;;;;;14.30;5.00;;;;;;;12.14;100.00;99992.75;30907604;28;20098;-78
2022/09/20 05:00:17;;;;;;;27.83;12.48;;;;;;;12.15;100.00;99991.56;30892200;28;20058;-81
2022/09/20 05:15:42;;;;;;;66.83;25.00;;;;;;;12.37;100.00;99976.16;30895865;28;20121;-79
2022/09/20 05:30:56;;;;;;;68.17;25.50;;;;;;;12.67;100.00;99944.16;30910564;28;20099;-79
2022/09/20 05:46:14;;;;;;;56.53;20.67;;;;;;;13.33;100.00;99935.03;30885093;28;20498;-78
2022/09/20 06:01:36;;;;;;;28.13;10.80;;;;;;;13.35;100.00;99945.50;30906273;28;20047;-79
2022/09/20 06:16:46;;;;;;;19.97;9.43;;;;;;;13.28;100.00;99971.03;30888951;28;20385;-77
2022/09/20 06:31:48;;;;;;;9.20;3.97;;;;;;;13.46;100.00;99954.09;30909080;28;20150;-77
2022/09/20 06:46:53;;;;;;;6.77;3.20;;;;;;;13.90;100.00;99950.22;30882028;28;20066;-77
2022/09/20 07:01:55;;;;;;;9.60;2.93;;;;;;;13.90;100.00;99944.75;30881354;28;20059;-79
2022/09/20 07:16:57;;;;;;;6.00;3.30;;;;;;;14.39;100.00;99935.94;30859105;28;20065;-79
2022/09/20 07:31:59;;;;;;;9.47;3.57;;;;;;;15.98;100.00;99923.16;30862177;28;20058;-77
2022/09/20 07:47:05;;;;;;;6.00;2.37;;;;;;;16.86;100.00;99922.25;30852822;28;20500;-78
2022/09/20 08:02:13;;;;;;;8.95;2.22;;;;;;;17.37;100.00;99916.59;30864410;28;20779;-79
2022/09/20 08:17:15;;;;;;;5.00;2.17;;;;;;;17.92;100.00;99911.41;30859961;28;20491;-78
2022/09/20 08:32:17;;;;;;;5.07;2.00;;;;;;;18.20;100.00;99903.63;30857016;28;20081;-78
2022/09/20 08:47:22;;;;;;;2.88;1.45;;;;;;;20.33;100.00;99890.41;30901281;28;20063;-79
2022/09/20 09:02:24;;;;;;;2.13;1.10;;;;;;;21.09;100.00;99887.84;30920321;28;20046;-79
2022/09/20 09:17:29;;;;;;;4.32;1.42;;;;;;;20.58;100.00;99883.34;30884541;28;20072;-77
2022/09/20 09:32:31;;;;;;;3.15;1.20;;;;;;;21.11;100.00;99880.59;30911549;28;20066;-77
2022/09/20 09:47:36;;;;;;;2.47;0.90;;;;;;;21.42;100.00;99863.16;30904677;28;20145;-78
2022/09/20 10:02:59;;;;;;;5.00;1.15;;;;;;;22.04;88.69;99854.94;30894528;28;20058;-78
2022/09/20 10:18:08;;;;;;;1.73;0.80;;;;;;;22.48;98.53;99840.31;30904563;28;20055;-79
2022/09/20 10:33:48;;;;;;;2.78;1.08;;;;;;;23.15;74.29;99837.31;30904778;28;20447;-79
2022/09/20 10:49:03;;;;;;;1.73;1.35;;;;;;;22.10;67.54;99842.66;30891944;28;20054;-79
2022/09/20 11:04:33;;;;;;;1.42;0.70;;;;;;;24.05;65.19;99816.06;30867099;28;20158;-78
2022/09/20 11:20:12;;;;;;;3.20;1.20;;;;;;;25.90;46.94;99797.81;30897719;28;20058;-79
2022/09/20 11:35:18;;;;;;;2.88;1.20;;;;;;;25.72;62.72;99793.06;30858053;28;20131;-85
2022/09/20 11:50:44;;;;;;;1.98;0.65;;;;;;;27.21;49.19;99796.25;30857130;28;20137;-80
2022/09/20 12:05:46;;;;;;;2.70;1.35;;;;;;;24.19;74.99;99788.44;30856402;28;20081;-79
2022/09/20 12:21:04;;;;;;;2.28;1.98;;;;;;;22.77;55.21;99789.94;30881083;28;20050;-78
2022/09/20 12:36:17;;;;;;;3.00;0.90;;;;;;;22.13;74.65;99771.03;30885625;28;20097;-84
2022/09/20 13:07:32;;;;;;;2.42;0.93;;;;;;;21.53;66.22;99748.44;30878912;28;20081;-78
2022/09/20 13:22:44;;;;;;;2.80;0.88;;;;;;;21.25;83.39;99735.41;30851894;28;20054;-79
2022/09/20 13:54:20;;;;;;;2.90;1.33;;;;;;;20.09;67.88;99750.94;30877558;28;20058;-82
2022/09/20 14:09:28;;;;;;;3.25;1.00;;;;;;;19.95;83.24;99751.13;30900969;28;20063;-82
2022/09/20 14:24:36;;;;;;;6.60;3.38;;;;;;;19.72;83.07;99733.69;30873163;28;20109;-81
2022/09/20 14:39:47;;;;;;;9.43;4.35;;;;;;;19.43;70.36;99732.69;30892186;28;20054;-81
2022/09/20 14:54:59;;;;;;;8.60;1.65;;;;;;;19.05;73.62;99738.59;30876185;28;20055;-79
2022/09/20 15:10:00;;;;;;;11.02;1.90;;;;;;;18.74;81.90;99751.00;30880366;28;20055;-81
2022/09/20 15:25:03;;;;;;;3.97;1.10;;;;;;;18.41;80.09;99753.31;30839931;28;21322;-81
2022/09/20 15:40:06;;;;;;;26.70;14.00;;;;;;;18.28;79.57;99761.13;30882586;28;20522;-82
2022/09/20 15:55:08;;;;;;;2.67;1.77;;;;;;;18.19;79.01;99761.28;30891955;28;20050;-81
2022/09/20 16:10:10;;;;;;;2.92;1.70;;;;;;;18.14;79.17;99767.44;30888922;28;20058;-79
2022/09/20 16:25:13;;;;;;;2.83;1.20;;;;;;;18.02;78.81;99778.25;30906342;28;20061;-83
2022/09/20 16:40:15;;;;;;;5.65;2.70;;;;;;;17.86;78.57;99767.03;30913874;28;20082;-80
2022/09/20 16:55:18;;;;;;;18.02;4.93;;;;;;;17.70;79.65;99777.28;30953401;28;20066;-79
2022/09/20 17:10:23;;;;;;;3.60;2.70;;;;;;;17.57;78.36;99770.53;30955183;28;20055;-80
2022/09/20 17:25:25;;;;;;;49.30;26.13;;;;;;;17.46;80.02;99759.38;30954788;28;20051;-80
2022/09/20 17:40:27;;;;;;;4.93;2.65;;;;;;;17.29;85.15;99773.53;30886011;28;20058;-79
2022/09/20 17:55:28;;;;;;;4.50;2.25;;;;;;;17.13;85.69;99778.72;30903366;28;20145;-81
2022/09/20 18:10:30;;;;;;;4.30;2.15;;;;;;;16.99;87.45;99786.47;30895010;28;20063;-77
2022/09/20 18:26:20;;;;;;;6.05;2.72;;;;;;;16.96;85.11;99778.41;30888203;28;20109;-77
2022/09/20 18:40:59;;;;;;;3.80;2.40;;;;;;;16.73;82.93;99765.50;30859925;28;20061;-77
2022/09/20 18:56:19;;;;;;;3.70;1.52;;;;;;;16.59;87.54;99784.13;30898685;28;20104;-78
2022/09/20 19:11:30;;;;;;;4.32;1.30;;;;;;;16.40;89.39;99782.72;30877882;28;20089;-79
2022/09/20 19:26:39;;;;;;;3.37;1.50;;;;;;;16.41;88.87;99773.28;30862651;28;20050;-77
2022/09/20 19:42:01;;;;;;;2.05;1.30;;;;;;;16.27;77.17;99787.69;30875043;28;20082;-79
2022/09/20 19:57:08;;;;;;;3.50;1.60;;;;;;;15.79;89.37;99793.06;30856954;28;20434;-77
2022/09/20 20:12:17;;;;;;;23.43;7.93;;;;;;;15.36;86.91;99800.38;30855751;28;20062;-77
2022/09/20 20:27:30;;;;;;;18.87;8.00;;;;;;;15.32;88.46;99818.94;30861882;28;20058;-78
2022/09/20 20:42:32;;;;;;;3.80;1.93;;;;;;;15.27;90.24;99838.69;30883253;28;20058;-77
2022/09/20 20:57:34;;;;;;;2.60;1.60;;;;;;;14.96;90.97;99851.75;30890782;28;20075;-77
2022/09/20 21:12:36;;;;;;;3.47;1.90;;;;;;;14.50;88.73;99843.44;30867572;28;20136;-77
2022/09/20 21:27:38;;;;;;;2.23;1.57;;;;;;;14.32;90.66;99860.50;30883355;28;20055;-76
2022/09/20 21:42:40;;;;;;;4.47;2.50;;;;;;;13.94;87.96;99868.97;30855243;28;20101;-77
2022/09/20 21:57:41;;;;;;;3.73;1.93;;;;;;;13.72;87.87;99868.22;30887412;28;20062;-76
2022/09/20 22:12:43;;;;;;;5.97;1.80;;;;;;;13.46;91.80;99866.84;30926874;28;20510;-75
2022/09/20 22:27:45;;;;;;;3.80;2.67;;;;;;;13.30;89.92;99876.72;30883262;28;20050;-76
2022/09/20 22:42:47;;;;;;;3.47;1.93;;;;;;;13.11;89.37;99857.88;30896115;28;20047;-76
2022/09/20 22:57:52;;;;;;;2.87;2.17;;;;;;;12.91;89.76;99874.50;30890137;28;20058;-75
2022/09/20 23:12:54;;;;;;;54.47;22.93;;;;;;;12.64;89.29;99872.28;30876405;28;20050;-75
2022/09/20 23:27:56;;;;;;;8.53;2.73;;;;;;;12.43;90.76;99879.16;30903549;28;20499;-76
2022/09/20 23:42:58;;;;;;;5.03;2.00;;;;;;;12.08;88.80;99882.91;30924258;28;20058;-76
2022/09/20 23:58:00;;;;;;;3.53;1.40;;;;;;;11.87;90.79;99874.19;30925366;28;20047;-77
